DLH024 EDDF-EDDH
Flight info
| Callsign | DLH024 |
|---|---|
| Flight time | 0h 42m |
| Altitude | 33000 |
| Route | MARUN3W/25C MARUN Y150 TOLGI DCT SAS P605 NOLGO NOLGO3P |
| Aircraft | A319/M-SDE3FGHIRWY/LB1 |
Departure
| Time | 2026-05-04 14:05 |
|---|---|
| Airport | Frankfurt Main Airport (EDDF) |
Arrival
| Time | 2026-05-04 14:48 |
|---|---|
| Airport | Hamburg Helmut Schmidt Airport (EDDH) |
| Time | Latitude | Longitude | Altitude | Speed | Heading |
|---|---|---|---|---|---|
| 2026-05-04 13:21 | 50.04871 | 8.58974 | 366 ft | 0 kts | 340° |
| 2026-05-04 13:57 | 50.04871 | 8.58975 | 363 ft | 1 kts | 340° |
| 2026-05-04 13:58 | 50.04799 | 8.59015 | 357 ft | 2 kts | 340° |
| 2026-05-04 13:58 | 50.04798 | 8.59016 | 357 ft | 0 kts | 340° |
| 2026-05-04 14:01 | 50.04798 | 8.59014 | 356 ft | 0 kts | 329° |
| 2026-05-04 14:01 | 50.04787 | 8.58992 | 361 ft | 3 kts | 233° |
| 2026-05-04 14:02 | 50.04770 | 8.58949 | 361 ft | 6 kts | 247° |
| 2026-05-04 14:02 | 50.04755 | 8.58886 | 359 ft | 5 kts | 249° |
| 2026-05-04 14:02 | 50.04752 | 8.58871 | 360 ft | 0 kts | 249° |
| 2026-05-04 14:03 | 50.04750 | 8.58864 | 359 ft | 3 kts | 249° |
| 2026-05-04 14:03 | 50.04735 | 8.58809 | 358 ft | 7 kts | 242° |
| 2026-05-04 14:03 | 50.04690 | 8.58766 | 359 ft | 8 kts | 191° |
| 2026-05-04 14:04 | 50.04581 | 8.58710 | 360 ft | 9 kts | 219° |
| 2026-05-04 14:04 | 50.04531 | 8.58649 | 363 ft | 9 kts | 218° |
| 2026-05-04 14:04 | 50.04485 | 8.58580 | 362 ft | 9 kts | 242° |
| 2026-05-04 14:05 | 50.04258 | 8.57638 | 361 ft | 111 kts | 250° |
| 2026-05-04 14:05 | 50.03914 | 8.56206 | 397 ft | 160 kts | 247° |
| 2026-05-04 14:05 | 50.03539 | 8.54603 | 1018 ft | 159 kts | 248° |
| 2026-05-04 14:06 | 50.03149 | 8.52986 | 1725 ft | 162 kts | 249° |
| 2026-05-04 14:06 | 50.02730 | 8.51251 | 2175 ft | 182 kts | 249° |
| 2026-05-04 14:06 | 50.02016 | 8.49508 | 2632 ft | 198 kts | 226° |
| 2026-05-04 14:06 | 50.00861 | 8.48319 | 3309 ft | 204 kts | 204° |
| 2026-05-04 14:07 | 49.99367 | 8.47837 | 4069 ft | 207 kts | 192° |
| 2026-05-04 14:07 | 49.97930 | 8.47516 | 4744 ft | 211 kts | 191° |
| 2026-05-04 14:07 | 49.96470 | 8.47185 | 5398 ft | 213 kts | 192° |
| 2026-05-04 14:07 | 49.94977 | 8.46559 | 5903 ft | 226 kts | 199° |
| 2026-05-04 14:08 | 49.93450 | 8.45841 | 6467 ft | 241 kts | 199° |
| 2026-05-04 14:08 | 49.91932 | 8.44735 | 7358 ft | 244 kts | 219° |
| 2026-05-04 14:08 | 49.90895 | 8.42633 | 8292 ft | 250 kts | 246° |
| 2026-05-04 14:08 | 49.90639 | 8.39898 | 9196 ft | 261 kts | 274° |
| 2026-05-04 14:09 | 49.92869 | 8.35408 | 10876 ft | 285 kts | 334° |
| 2026-05-04 14:09 | 49.94748 | 8.34148 | 11354 ft | 306 kts | 336° |
| 2026-05-04 14:10 | 49.99008 | 8.31419 | 11968 ft | 354 kts | 336° |
| 2026-05-04 14:10 | 50.01339 | 8.30014 | 12458 ft | 366 kts | 341° |
| 2026-05-04 14:10 | 50.03869 | 8.29207 | 13182 ft | 373 kts | 353° |
| 2026-05-04 14:10 | 50.06466 | 8.29194 | 13911 ft | 378 kts | 5° |
| 2026-05-04 14:11 | 50.09061 | 8.30016 | 14554 ft | 382 kts | 18° |
| 2026-05-04 14:11 | 50.14021 | 8.33117 | 15839 ft | 390 kts | 29° |
| 2026-05-04 14:11 | 50.16430 | 8.35175 | 16501 ft | 394 kts | 29° |
| 2026-05-04 14:12 | 50.18853 | 8.37256 | 17173 ft | 398 kts | 29° |
| 2026-05-04 14:12 | 50.21287 | 8.39356 | 17805 ft | 403 kts | 29° |
| 2026-05-04 14:12 | 50.26260 | 8.43646 | 18953 ft | 412 kts | 29° |
| 2026-05-04 14:13 | 50.28748 | 8.45784 | 19453 ft | 416 kts | 29° |
| 2026-05-04 14:13 | 50.31339 | 8.48003 | 20000 ft | 420 kts | 28° |
| 2026-05-04 14:13 | 50.33879 | 8.50177 | 20536 ft | 424 kts | 28° |
| 2026-05-04 14:13 | 50.36473 | 8.52401 | 21085 ft | 427 kts | 28° |
| 2026-05-04 14:14 | 50.39094 | 8.54662 | 21609 ft | 431 kts | 28° |
| 2026-05-04 14:14 | 50.43628 | 8.58598 | 22462 ft | 438 kts | 28° |
| 2026-05-04 14:14 | 50.47124 | 8.61640 | 23060 ft | 443 kts | 28° |
| 2026-05-04 14:15 | 50.52599 | 8.66398 | 23927 ft | 450 kts | 28° |
| 2026-05-04 14:15 | 50.58109 | 8.71191 | 24768 ft | 455 kts | 28° |
| 2026-05-04 14:16 | 50.63728 | 8.76097 | 25596 ft | 460 kts | 28° |
| 2026-05-04 14:16 | 50.65588 | 8.77726 | 25849 ft | 461 kts | 28° |
| 2026-05-04 14:17 | 50.72158 | 8.83499 | 26749 ft | 468 kts | 28° |
| 2026-05-04 14:17 | 50.74086 | 8.85195 | 27005 ft | 469 kts | 28° |
| 2026-05-04 14:17 | 50.79715 | 8.90160 | 27735 ft | 475 kts | 28° |
| 2026-05-04 14:18 | 50.82837 | 8.92915 | 28117 ft | 477 kts | 28° |
| 2026-05-04 14:18 | 50.88629 | 8.98024 | 28813 ft | 483 kts | 28° |
| 2026-05-04 14:19 | 50.94516 | 9.03241 | 29480 ft | 488 kts | 28° |
| 2026-05-04 14:19 | 50.97450 | 9.05857 | 29807 ft | 490 kts | 28° |
| 2026-05-04 14:19 | 51.00431 | 9.08519 | 30114 ft | 492 kts | 28° |
| 2026-05-04 14:19 | 51.03466 | 9.11232 | 30395 ft | 495 kts | 28° |
| 2026-05-04 14:20 | 51.06433 | 9.13889 | 30772 ft | 496 kts | 28° |
| 2026-05-04 14:20 | 51.09429 | 9.16576 | 31220 ft | 494 kts | 27° |
| 2026-05-04 14:20 | 51.12421 | 9.19260 | 31643 ft | 494 kts | 27° |
| 2026-05-04 14:21 | 51.18423 | 9.24636 | 31974 ft | 493 kts | 27° |
| 2026-05-04 14:21 | 51.21405 | 9.27310 | 31989 ft | 493 kts | 27° |
| 2026-05-04 14:21 | 51.27566 | 9.32753 | 32258 ft | 494 kts | 22° |
| 2026-05-04 14:22 | 51.30766 | 9.34782 | 32680 ft | 489 kts | 14° |
| 2026-05-04 14:22 | 51.34023 | 9.36091 | 33094 ft | 484 kts | 8° |
| 2026-05-04 14:22 | 51.37306 | 9.37216 | 33524 ft | 483 kts | 8° |
| 2026-05-04 14:22 | 51.40639 | 9.38372 | 33901 ft | 482 kts | 7° |
| 2026-05-04 14:23 | 51.50449 | 9.41812 | 33786 ft | 480 kts | 7° |
| 2026-05-04 14:23 | 51.53756 | 9.42971 | 33502 ft | 480 kts | 7° |
| 2026-05-04 14:24 | 51.57062 | 9.44131 | 33223 ft | 480 kts | 8° |
| 2026-05-04 14:24 | 51.60331 | 9.45279 | 32969 ft | 480 kts | 8° |
| 2026-05-04 14:24 | 51.63590 | 9.46426 | 32965 ft | 479 kts | 8° |
| 2026-05-04 14:25 | 51.70103 | 9.48728 | 32959 ft | 480 kts | 7° |
| 2026-05-04 14:25 | 51.79962 | 9.52219 | 32962 ft | 481 kts | 8° |
| 2026-05-04 14:26 | 51.86276 | 9.56024 | 32959 ft | 490 kts | 24° |
| 2026-05-04 14:26 | 51.92385 | 9.61111 | 32966 ft | 490 kts | 23° |
| 2026-05-04 14:27 | 51.98442 | 9.66129 | 32962 ft | 490 kts | 23° |
| 2026-05-04 14:27 | 52.04516 | 9.71166 | 32958 ft | 489 kts | 23° |
| 2026-05-04 14:28 | 52.10663 | 9.76298 | 32947 ft | 490 kts | 23° |
| 2026-05-04 14:28 | 52.16709 | 9.81367 | 32966 ft | 490 kts | 23° |
| 2026-05-04 14:29 | 52.29035 | 9.90172 | 32952 ft | 481 kts | 9° |
| 2026-05-04 14:30 | 52.34425 | 9.92523 | 32952 ft | 481 kts | 9° |
| 2026-05-04 14:31 | 52.45351 | 9.97319 | 32946 ft | 484 kts | 9° |
| 2026-05-04 14:31 | 52.50805 | 9.99727 | 32395 ft | 485 kts | 9° |
| 2026-05-04 14:32 | 52.57425 | 10.02669 | 30828 ft | 487 kts | 10° |
| 2026-05-04 14:32 | 52.60663 | 10.04118 | 30110 ft | 487 kts | 9° |
| 2026-05-04 14:32 | 52.63975 | 10.05605 | 29257 ft | 488 kts | 9° |
| 2026-05-04 14:32 | 52.67254 | 10.07074 | 28410 ft | 487 kts | 10° |
| 2026-05-04 14:33 | 52.70530 | 10.08540 | 27609 ft | 485 kts | 10° |
| 2026-05-04 14:33 | 52.73775 | 10.09998 | 26820 ft | 483 kts | 10° |
| 2026-05-04 14:33 | 52.77024 | 10.11337 | 26054 ft | 477 kts | 5° |
| 2026-05-04 14:33 | 52.80295 | 10.11869 | 25316 ft | 467 kts | 355° |
| 2026-05-04 14:34 | 52.83539 | 10.11962 | 24622 ft | 464 kts | 355° |
| 2026-05-04 14:34 | 52.86804 | 10.12057 | 23901 ft | 461 kts | 356° |
| 2026-05-04 14:34 | 52.90000 | 10.12156 | 23139 ft | 458 kts | 356° |
| 2026-05-04 14:34 | 52.93180 | 10.12260 | 22321 ft | 455 kts | 356° |
| 2026-05-04 14:35 | 52.96327 | 10.12366 | 21533 ft | 452 kts | 356° |
| 2026-05-04 14:35 | 52.99485 | 10.12479 | 20757 ft | 449 kts | 356° |
| 2026-05-04 14:35 | 53.02578 | 10.12589 | 20008 ft | 445 kts | 357° |
| 2026-05-04 14:35 | 53.05729 | 10.12697 | 19259 ft | 442 kts | 357° |
| 2026-05-04 14:36 | 53.08733 | 10.12802 | 18602 ft | 438 kts | 357° |
| 2026-05-04 14:36 | 53.12033 | 10.12914 | 17907 ft | 429 kts | 357° |
| 2026-05-04 14:36 | 53.14749 | 10.13004 | 17292 ft | 420 kts | 357° |
| 2026-05-04 14:36 | 53.17647 | 10.13100 | 16638 ft | 412 kts | 357° |
| 2026-05-04 14:37 | 53.20489 | 10.13193 | 16000 ft | 404 kts | 357° |
| 2026-05-04 14:37 | 53.23283 | 10.13282 | 15373 ft | 398 kts | 358° |
| 2026-05-04 14:37 | 53.26030 | 10.13370 | 14757 ft | 391 kts | 358° |
| 2026-05-04 14:37 | 53.28749 | 10.13461 | 14148 ft | 383 kts | 358° |
| 2026-05-04 14:38 | 53.31406 | 10.13552 | 13539 ft | 377 kts | 358° |
| 2026-05-04 14:38 | 53.33991 | 10.13638 | 12873 ft | 370 kts | 358° |
| 2026-05-04 14:38 | 53.36533 | 10.13723 | 12572 ft | 354 kts | 358° |
| 2026-05-04 14:38 | 53.38926 | 10.13809 | 12439 ft | 335 kts | 358° |
| 2026-05-04 14:39 | 53.41209 | 10.13645 | 12308 ft | 316 kts | 352° |
| 2026-05-04 14:39 | 53.43340 | 10.13370 | 12097 ft | 304 kts | 352° |
| 2026-05-04 14:39 | 53.45428 | 10.13104 | 11707 ft | 299 kts | 352° |
| 2026-05-04 14:40 | 53.49568 | 10.12576 | 10785 ft | 295 kts | 352° |
| 2026-05-04 14:40 | 53.51635 | 10.12312 | 10334 ft | 294 kts | 352° |
| 2026-05-04 14:40 | 53.53681 | 10.12050 | 9882 ft | 292 kts | 352° |
| 2026-05-04 14:40 | 53.55714 | 10.11796 | 9378 ft | 290 kts | 353° |
| 2026-05-04 14:41 | 53.57715 | 10.12191 | 8919 ft | 293 kts | 16° |
| 2026-05-04 14:41 | 53.59507 | 10.13898 | 8451 ft | 295 kts | 40° |
| 2026-05-04 14:41 | 53.62162 | 10.19066 | 7797 ft | 281 kts | 49° |
| 2026-05-04 14:42 | 53.64596 | 10.23997 | 7474 ft | 262 kts | 49° |
| 2026-05-04 14:42 | 53.65806 | 10.26446 | 7194 ft | 259 kts | 48° |
| 2026-05-04 14:42 | 53.66973 | 10.28632 | 6900 ft | 256 kts | 37° |
| 2026-05-04 14:43 | 53.68529 | 10.29889 | 6617 ft | 247 kts | 9° |
| 2026-05-04 14:43 | 53.70205 | 10.29916 | 6301 ft | 238 kts | 339° |
| 2026-05-04 14:43 | 53.71686 | 10.28765 | 5976 ft | 233 kts | 325° |
| 2026-05-04 14:43 | 53.72813 | 10.26928 | 5571 ft | 224 kts | 300° |
| 2026-05-04 14:44 | 53.73408 | 10.24613 | 5373 ft | 207 kts | 279° |
| 2026-05-04 14:44 | 53.73574 | 10.22256 | 5044 ft | 200 kts | 269° |
| 2026-05-04 14:44 | 53.73286 | 10.19982 | 4650 ft | 199 kts | 245° |
| 2026-05-04 14:44 | 53.72495 | 10.18073 | 4243 ft | 196 kts | 231° |
| 2026-05-04 14:45 | 53.71629 | 10.16311 | 3644 ft | 193 kts | 232° |
| 2026-05-04 14:45 | 53.70780 | 10.14574 | 3051 ft | 191 kts | 232° |
| 2026-05-04 14:45 | 53.69964 | 10.12910 | 2656 ft | 177 kts | 232° |
| 2026-05-04 14:45 | 53.69194 | 10.11341 | 2123 ft | 175 kts | 232° |
| 2026-05-04 14:46 | 53.68676 | 10.10285 | 1715 ft | 177 kts | 234° |
| 2026-05-04 14:46 | 53.67898 | 10.08703 | 1434 ft | 171 kts | 235° |
| 2026-05-04 14:46 | 53.67131 | 10.07142 | 1190 ft | 167 kts | 234° |
| 2026-05-04 14:46 | 53.66421 | 10.05700 | 969 ft | 155 kts | 235° |
| 2026-05-04 14:47 | 53.65736 | 10.04305 | 758 ft | 154 kts | 233° |
| 2026-05-04 14:47 | 53.65056 | 10.02924 | 544 ft | 147 kts | 234° |
| 2026-05-04 14:47 | 53.64396 | 10.01589 | 369 ft | 140 kts | 236° |
| 2026-05-04 14:47 | 53.63799 | 10.00383 | 171 ft | 137 kts | 234° |
| 2026-05-04 14:48 | 53.63216 | 9.99188 | 47 ft | 114 kts | 231° |
| 2026-05-04 14:48 | 53.62903 | 9.98574 | 44 ft | 29 kts | 214° |
| 2026-05-04 14:48 | 53.62754 | 9.98472 | 45 ft | 18 kts | 185° |
| 2026-05-04 14:48 | 53.62701 | 9.98578 | 45 ft | 14 kts | 58° |
| 2026-05-04 14:49 | 53.62750 | 9.98674 | 47 ft | 13 kts | 50° |
| 2026-05-04 14:49 | 53.62811 | 9.98799 | 47 ft | 15 kts | 50° |
| 2026-05-04 14:49 | 53.62880 | 9.98937 | 47 ft | 12 kts | 50° |
| 2026-05-04 14:49 | 53.62939 | 9.99057 | 47 ft | 14 kts | 50° |
| 2026-05-04 14:50 | 53.63001 | 9.99181 | 47 ft | 14 kts | 50° |
| 2026-05-04 14:50 | 53.63056 | 9.99297 | 47 ft | 11 kts | 53° |
| 2026-05-04 14:50 | 53.63081 | 9.99358 | 47 ft | 0 kts | 56° |
| 2026-05-04 14:52 | 53.63087 | 9.99372 | 47 ft | 4 kts | 55° |
| 2026-05-04 14:52 | 53.63119 | 9.99450 | 46 ft | 12 kts | 54° |
| 2026-05-04 14:52 | 53.63171 | 9.99567 | 46 ft | 13 kts | 51° |
| 2026-05-04 14:53 | 53.63227 | 9.99679 | 48 ft | 12 kts | 48° |
| 2026-05-04 14:53 | 53.63289 | 9.99782 | 48 ft | 13 kts | 48° |
| 2026-05-04 14:53 | 53.63345 | 9.99898 | 48 ft | 11 kts | 49° |
| 2026-05-04 14:53 | 53.63395 | 9.99996 | 48 ft | 11 kts | 50° |
| 2026-05-04 14:54 | 53.63428 | 10.00110 | 48 ft | 11 kts | 99° |
| 2026-05-04 14:54 | 53.63388 | 10.00213 | 47 ft | 5 kts | 135° |
| 2026-05-04 14:54 | 53.63369 | 10.00273 | 48 ft | 6 kts | 86° |
| 2026-05-04 14:54 | 53.63372 | 10.00336 | 46 ft | 5 kts | 85° |
| 2026-05-04 14:55 | 53.63373 | 10.00351 | 47 ft | 0 kts | 85° |